Norman, Indiana
Current Conditions -  °F | °C
As of 10:53 AM on Friday 28 Nov 2014 (Local Time) from KBMG Reporting Station
Overcast Overcast  
Wind Chill: 20°   Ceiling: 12000
Heat Index: 27°   Visibility: 10mi
Dew Point: 20°   Wind: 6mph
Humidity: 75%   Direction: 160°SSE
Pressure: 30.33"   Gusts: NA
Location:  38.95°N, 86.27°W
Report Text: KBMG 281553Z 16005KT 10SM OVC120 M03/M07 A3033 RMK AO2 SLP282 T10281067
Loading
Personal Weather Stations






























Interactive Weather Map New forecast layout! Learn more

10-Day Weather Forecast

Advertisements
Track Severe Weather on mobile